sensor_id;sensor_type;location;lat;lon;timestamp;P1;durP1;ratioP1;P2;durP2;ratioP2
23800;SDS011;12081;48.614;10.226;2022-12-18T00:01:05;73.27;;;27.23;;
23800;SDS011;12081;48.614;10.226;2022-12-18T00:03:58;100.87;;;29.33;;
23800;SDS011;12081;48.614;10.226;2022-12-18T00:06:43;101.43;;;26.50;;
23800;SDS011;12081;48.614;10.226;2022-12-18T00:09:28;81.47;;;28.00;;
23800;SDS011;12081;48.614;10.226;2022-12-18T00:12:12;71.37;;;27.83;;
23800;SDS011;12081;48.614;10.226;2022-12-18T00:14:56;94.07;;;28.83;;
23800;SDS011;12081;48.614;10.226;2022-12-18T00:17:40;71.33;;;25.80;;
23800;SDS011;12081;48.614;10.226;2022-12-18T00:20:24;80.60;;;27.57;;
23800;SDS011;12081;48.614;10.226;2022-12-18T00:23:09;70.20;;;26.83;;
23800;SDS011;12081;48.614;10.226;2022-12-18T00:25:53;83.70;;;26.37;;
23800;SDS011;12081;48.614;10.226;2022-12-18T00:28:37;73.73;;;26.90;;
23800;SDS011;12081;48.614;10.226;2022-12-18T00:31:22;73.13;;;27.37;;
23800;SDS011;12081;48.614;10.226;2022-12-18T00:34:09;77.47;;;24.83;;
23800;SDS011;12081;48.614;10.226;2022-12-18T00:36:55;63.00;;;23.93;;
23800;SDS011;12081;48.614;10.226;2022-12-18T00:39:39;78.50;;;21.40;;
23800;SDS011;12081;48.614;10.226;2022-12-18T00:42:23;61.83;;;22.43;;
23800;SDS011;12081;48.614;10.226;2022-12-18T00:45:30;72.60;;;25.20;;
23800;SDS011;12081;48.614;10.226;2022-12-18T00:48:14;68.33;;;26.97;;
23800;SDS011;12081;48.614;10.226;2022-12-18T00:50:59;73.37;;;25.87;;
23800;SDS011;12081;48.614;10.226;2022-12-18T00:53:43;63.70;;;24.70;;
23800;SDS011;12081;48.614;10.226;2022-12-18T00:56:27;72.00;;;25.73;;
23800;SDS011;12081;48.614;10.226;2022-12-18T00:59:11;64.93;;;25.77;;
23800;SDS011;12081;48.614;10.226;2022-12-18T01:01:55;71.73;;;25.80;;
23800;SDS011;12081;48.614;10.226;2022-12-18T01:04:39;81.97;;;27.93;;
23800;SDS011;12081;48.614;10.226;2022-12-18T01:07:23;66.53;;;26.47;;
23800;SDS011;12081;48.614;10.226;2022-12-18T01:10:08;73.50;;;25.83;;
23800;SDS011;12081;48.614;10.226;2022-12-18T01:12:54;63.17;;;25.37;;
23800;SDS011;12081;48.614;10.226;2022-12-18T01:15:39;74.97;;;27.17;;
23800;SDS011;12081;48.614;10.226;2022-12-18T01:18:31;79.90;;;26.63;;
23800;SDS011;12081;48.614;10.226;2022-12-18T01:21:15;73.13;;;26.97;;
23800;SDS011;12081;48.614;10.226;2022-12-18T01:24:00;69.00;;;25.30;;
23800;SDS011;12081;48.614;10.226;2022-12-18T01:26:44;107.90;;;26.80;;
23800;SDS011;12081;48.614;10.226;2022-12-18T01:29:29;71.27;;;25.77;;
23800;SDS011;12081;48.614;10.226;2022-12-18T01:32:14;73.80;;;26.73;;
23800;SDS011;12081;48.614;10.226;2022-12-18T01:34:58;65.70;;;27.77;;
23800;SDS011;12081;48.614;10.226;2022-12-18T01:37:42;64.37;;;25.43;;
23800;SDS011;12081;48.614;10.226;2022-12-18T01:40:25;72.60;;;27.67;;
23800;SDS011;12081;48.614;10.226;2022-12-18T01:43:10;67.80;;;25.17;;
23800;SDS011;12081;48.614;10.226;2022-12-18T01:45:54;64.47;;;24.50;;
23800;SDS011;12081;48.614;10.226;2022-12-18T01:48:38;77.67;;;25.67;;
23800;SDS011;12081;48.614;10.226;2022-12-18T01:51:23;69.17;;;22.63;;
23800;SDS011;12081;48.614;10.226;2022-12-18T01:54:07;50.67;;;24.07;;
23800;SDS011;12081;48.614;10.226;2022-12-18T01:56:51;67.40;;;24.60;;
23800;SDS011;12081;48.614;10.226;2022-12-18T01:59:35;87.20;;;25.63;;
23800;SDS011;12081;48.614;10.226;2022-12-18T02:02:21;72.27;;;23.67;;
23800;SDS011;12081;48.614;10.226;2022-12-18T02:05:06;70.80;;;23.13;;
23800;SDS011;12081;48.614;10.226;2022-12-18T02:10:46;94.07;;;25.70;;
23800;SDS011;12081;48.614;10.226;2022-12-18T02:13:46;67.40;;;23.83;;
23800;SDS011;12081;48.614;10.226;2022-12-18T02:16:52;52.13;;;23.63;;
23800;SDS011;12081;48.614;10.226;2022-12-18T02:29:03;69.33;;;24.17;;
23800;SDS011;12081;48.614;10.226;2022-12-18T02:31:53;79.00;;;26.40;;
23800;SDS011;12081;48.614;10.226;2022-12-18T02:34:40;68.37;;;23.80;;
23800;SDS011;12081;48.614;10.226;2022-12-18T02:37:27;80.97;;;25.63;;
23800;SDS011;12081;48.614;10.226;2022-12-18T02:40:14;72.00;;;23.13;;
23800;SDS011;12081;48.614;10.226;2022-12-18T02:43:07;81.20;;;27.10;;
23800;SDS011;12081;48.614;10.226;2022-12-18T02:45:57;67.07;;;23.47;;
23800;SDS011;12081;48.614;10.226;2022-12-18T02:48:42;79.83;;;25.20;;
23800;SDS011;12081;48.614;10.226;2022-12-18T02:51:29;85.00;;;24.10;;
23800;SDS011;12081;48.614;10.226;2022-12-18T02:57:19;70.07;;;24.70;;
23800;SDS011;12081;48.614;10.226;2022-12-18T03:00:29;88.83;;;22.70;;
23800;SDS011;12081;48.614;10.226;2022-12-18T03:03:42;68.00;;;22.80;;
23800;SDS011;12081;48.614;10.226;2022-12-18T03:06:28;74.17;;;24.27;;
23800;SDS011;12081;48.614;10.226;2022-12-18T03:09:28;80.80;;;22.93;;
23800;SDS011;12081;48.614;10.226;2022-12-18T03:12:32;80.60;;;24.57;;
23800;SDS011;12081;48.614;10.226;2022-12-18T03:15:22;72.07;;;23.10;;
23800;SDS011;12081;48.614;10.226;2022-12-18T03:18:10;67.77;;;21.23;;
23800;SDS011;12081;48.614;10.226;2022-12-18T03:21:07;63.37;;;23.90;;
23800;SDS011;12081;48.614;10.226;2022-12-18T03:23:54;83.53;;;26.57;;
23800;SDS011;12081;48.614;10.226;2022-12-18T03:26:41;110.20;;;25.13;;
23800;SDS011;12081;48.614;10.226;2022-12-18T03:29:32;65.90;;;23.60;;
23800;SDS011;12081;48.614;10.226;2022-12-18T03:32:25;67.07;;;23.73;;
23800;SDS011;12081;48.614;10.226;2022-12-18T03:35:15;93.77;;;24.87;;
23800;SDS011;12081;48.614;10.226;2022-12-18T03:38:05;75.03;;;22.73;;
23800;SDS011;12081;48.614;10.226;2022-12-18T03:40:56;75.43;;;26.53;;
23800;SDS011;12081;48.614;10.226;2022-12-18T03:49:53;72.60;;;23.43;;
23800;SDS011;12081;48.614;10.226;2022-12-18T03:55:45;72.93;;;24.17;;
23800;SDS011;12081;48.614;10.226;2022-12-18T03:58:31;120.97;;;28.50;;
23800;SDS011;12081;48.614;10.226;2022-12-18T04:01:18;70.27;;;24.03;;
23800;SDS011;12081;48.614;10.226;2022-12-18T04:04:07;73.30;;;26.20;;
23800;SDS011;12081;48.614;10.226;2022-12-18T04:06:53;68.53;;;26.63;;
23800;SDS011;12081;48.614;10.226;2022-12-18T04:09:39;81.30;;;25.30;;
23800;SDS011;12081;48.614;10.226;2022-12-18T04:12:25;87.83;;;26.73;;
23800;SDS011;12081;48.614;10.226;2022-12-18T04:15:10;81.17;;;26.30;;
23800;SDS011;12081;48.614;10.226;2022-12-18T04:17:56;79.23;;;26.17;;
23800;SDS011;12081;48.614;10.226;2022-12-18T04:20:40;76.77;;;27.00;;
23800;SDS011;12081;48.614;10.226;2022-12-18T04:23:24;70.60;;;24.43;;
23800;SDS011;12081;48.614;10.226;2022-12-18T04:26:08;68.90;;;24.40;;
23800;SDS011;12081;48.614;10.226;2022-12-18T04:28:52;79.27;;;26.47;;
23800;SDS011;12081;48.614;10.226;2022-12-18T04:31:36;81.83;;;26.60;;
23800;SDS011;12081;48.614;10.226;2022-12-18T04:34:21;80.53;;;28.13;;
23800;SDS011;12081;48.614;10.226;2022-12-18T04:37:05;70.87;;;25.77;;
23800;SDS011;12081;48.614;10.226;2022-12-18T04:39:50;88.80;;;27.37;;
23800;SDS011;12081;48.614;10.226;2022-12-18T04:42:34;68.77;;;24.20;;
23800;SDS011;12081;48.614;10.226;2022-12-18T04:45:18;68.60;;;26.20;;
23800;SDS011;12081;48.614;10.226;2022-12-18T04:48:05;88.57;;;26.60;;
23800;SDS011;12081;48.614;10.226;2022-12-18T04:50:50;77.10;;;27.07;;
23800;SDS011;12081;48.614;10.226;2022-12-18T04:53:34;74.33;;;25.40;;
23800;SDS011;12081;48.614;10.226;2022-12-18T04:56:18;77.33;;;27.40;;
23800;SDS011;12081;48.614;10.226;2022-12-18T05:01:46;73.27;;;27.10;;
23800;SDS011;12081;48.614;10.226;2022-12-18T05:04:30;72.93;;;25.20;;
23800;SDS011;12081;48.614;10.226;2022-12-18T05:07:15;74.27;;;25.50;;
23800;SDS011;12081;48.614;10.226;2022-12-18T05:09:59;69.23;;;25.70;;
23800;SDS011;12081;48.614;10.226;2022-12-18T05:12:43;65.30;;;23.17;;
23800;SDS011;12081;48.614;10.226;2022-12-18T05:15:42;73.20;;;25.87;;
23800;SDS011;12081;48.614;10.226;2022-12-18T05:18:34;72.53;;;25.53;;
23800;SDS011;12081;48.614;10.226;2022-12-18T05:21:19;65.87;;;24.63;;
23800;SDS011;12081;48.614;10.226;2022-12-18T05:24:03;76.03;;;25.20;;
23800;SDS011;12081;48.614;10.226;2022-12-18T05:26:48;72.53;;;26.83;;
23800;SDS011;12081;48.614;10.226;2022-12-18T05:29:32;75.30;;;25.87;;
23800;SDS011;12081;48.614;10.226;2022-12-18T05:32:16;61.57;;;23.23;;
23800;SDS011;12081;48.614;10.226;2022-12-18T05:35:00;65.83;;;23.47;;
23800;SDS011;12081;48.614;10.226;2022-12-18T05:37:44;70.40;;;24.10;;
23800;SDS011;12081;48.614;10.226;2022-12-18T05:40:28;57.87;;;22.93;;
23800;SDS011;12081;48.614;10.226;2022-12-18T05:43:12;55.87;;;22.03;;
23800;SDS011;12081;48.614;10.226;2022-12-18T05:45:56;60.73;;;23.60;;
23800;SDS011;12081;48.614;10.226;2022-12-18T05:48:41;74.33;;;24.97;;
23800;SDS011;12081;48.614;10.226;2022-12-18T05:51:26;61.50;;;24.40;;
23800;SDS011;12081;48.614;10.226;2022-12-18T05:54:11;70.03;;;24.50;;
23800;SDS011;12081;48.614;10.226;2022-12-18T05:56:54;65.40;;;23.03;;
23800;SDS011;12081;48.614;10.226;2022-12-18T05:59:38;56.87;;;21.97;;
23800;SDS011;12081;48.614;10.226;2022-12-18T06:02:23;66.37;;;22.27;;
23800;SDS011;12081;48.614;10.226;2022-12-18T06:05:07;60.00;;;22.47;;
23800;SDS011;12081;48.614;10.226;2022-12-18T06:07:51;57.17;;;22.63;;
23800;SDS011;12081;48.614;10.226;2022-12-18T06:10:36;63.80;;;22.70;;
23800;SDS011;12081;48.614;10.226;2022-12-18T06:13:20;61.67;;;20.90;;
23800;SDS011;12081;48.614;10.226;2022-12-18T06:16:05;56.93;;;21.97;;
23800;SDS011;12081;48.614;10.226;2022-12-18T06:18:49;54.80;;;20.93;;
23800;SDS011;12081;48.614;10.226;2022-12-18T06:21:34;64.87;;;23.90;;
23800;SDS011;12081;48.614;10.226;2022-12-18T06:24:18;52.43;;;20.50;;
23800;SDS011;12081;48.614;10.226;2022-12-18T06:27:02;53.37;;;20.73;;
23800;SDS011;12081;48.614;10.226;2022-12-18T06:29:47;58.00;;;18.57;;
23800;SDS011;12081;48.614;10.226;2022-12-18T06:32:36;55.60;;;21.27;;
23800;SDS011;12081;48.614;10.226;2022-12-18T06:35:31;52.33;;;19.03;;
23800;SDS011;12081;48.614;10.226;2022-12-18T06:38:16;57.30;;;21.47;;
23800;SDS011;12081;48.614;10.226;2022-12-18T06:41:00;56.67;;;21.23;;
23800;SDS011;12081;48.614;10.226;2022-12-18T06:43:44;50.27;;;19.03;;
23800;SDS011;12081;48.614;10.226;2022-12-18T06:46:29;53.30;;;18.77;;
23800;SDS011;12081;48.614;10.226;2022-12-18T06:49:13;52.20;;;19.93;;
23800;SDS011;12081;48.614;10.226;2022-12-18T06:51:57;60.33;;;21.43;;
23800;SDS011;12081;48.614;10.226;2022-12-18T06:54:42;51.70;;;20.13;;
23800;SDS011;12081;48.614;10.226;2022-12-18T06:57:29;53.90;;;20.07;;
23800;SDS011;12081;48.614;10.226;2022-12-18T07:00:14;52.87;;;21.30;;
23800;SDS011;12081;48.614;10.226;2022-12-18T07:03:01;53.20;;;21.47;;
23800;SDS011;12081;48.614;10.226;2022-12-18T07:05:46;51.93;;;21.47;;
23800;SDS011;12081;48.614;10.226;2022-12-18T07:08:30;51.93;;;20.87;;
23800;SDS011;12081;48.614;10.226;2022-12-18T07:11:18;56.80;;;20.20;;
23800;SDS011;12081;48.614;10.226;2022-12-18T07:14:03;52.17;;;21.63;;
23800;SDS011;12081;48.614;10.226;2022-12-18T07:16:54;51.17;;;20.03;;
23800;SDS011;12081;48.614;10.226;2022-12-18T07:19:38;51.93;;;21.23;;
23800;SDS011;12081;48.614;10.226;2022-12-18T07:22:22;42.10;;;17.17;;
23800;SDS011;12081;48.614;10.226;2022-12-18T07:25:08;51.13;;;20.83;;
23800;SDS011;12081;48.614;10.226;2022-12-18T07:27:52;63.37;;;23.43;;
23800;SDS011;12081;48.614;10.226;2022-12-18T07:30:37;60.20;;;22.47;;
23800;SDS011;12081;48.614;10.226;2022-12-18T07:33:22;52.00;;;21.77;;
23800;SDS011;12081;48.614;10.226;2022-12-18T07:36:06;52.77;;;21.97;;
23800;SDS011;12081;48.614;10.226;2022-12-18T07:38:51;62.73;;;24.27;;
23800;SDS011;12081;48.614;10.226;2022-12-18T07:41:36;48.70;;;20.17;;
23800;SDS011;12081;48.614;10.226;2022-12-18T07:44:20;48.30;;;20.77;;
23800;SDS011;12081;48.614;10.226;2022-12-18T07:47:04;46.73;;;19.97;;
23800;SDS011;12081;48.614;10.226;2022-12-18T07:49:48;46.40;;;20.40;;
23800;SDS011;12081;48.614;10.226;2022-12-18T07:52:32;44.97;;;18.83;;
23800;SDS011;12081;48.614;10.226;2022-12-18T07:55:16;48.03;;;19.87;;
23800;SDS011;12081;48.614;10.226;2022-12-18T07:58:01;47.43;;;19.97;;
23800;SDS011;12081;48.614;10.226;2022-12-18T08:00:46;44.30;;;19.60;;
23800;SDS011;12081;48.614;10.226;2022-12-18T08:03:30;47.57;;;19.00;;
23800;SDS011;12081;48.614;10.226;2022-12-18T08:06:14;44.87;;;18.80;;
23800;SDS011;12081;48.614;10.226;2022-12-18T08:08:58;49.47;;;19.87;;
23800;SDS011;12081;48.614;10.226;2022-12-18T08:11:42;47.03;;;19.47;;
23800;SDS011;12081;48.614;10.226;2022-12-18T08:14:26;41.60;;;18.03;;
23800;SDS011;12081;48.614;10.226;2022-12-18T08:17:10;42.57;;;18.50;;
23800;SDS011;12081;48.614;10.226;2022-12-18T08:19:54;39.53;;;18.33;;
23800;SDS011;12081;48.614;10.226;2022-12-18T08:22:38;42.27;;;19.47;;
23800;SDS011;12081;48.614;10.226;2022-12-18T08:25:23;45.10;;;18.17;;
23800;SDS011;12081;48.614;10.226;2022-12-18T08:28:07;46.63;;;20.47;;
23800;SDS011;12081;48.614;10.226;2022-12-18T08:30:51;56.87;;;22.57;;
23800;SDS011;12081;48.614;10.226;2022-12-18T08:33:36;49.23;;;21.70;;
23800;SDS011;12081;48.614;10.226;2022-12-18T08:36:22;45.20;;;20.57;;
23800;SDS011;12081;48.614;10.226;2022-12-18T08:39:07;43.97;;;19.80;;
23800;SDS011;12081;48.614;10.226;2022-12-18T08:41:51;45.80;;;18.77;;
23800;SDS011;12081;48.614;10.226;2022-12-18T08:44:54;45.33;;;19.10;;
23800;SDS011;12081;48.614;10.226;2022-12-18T08:47:38;47.57;;;20.73;;
23800;SDS011;12081;48.614;10.226;2022-12-18T08:50:22;49.10;;;21.53;;
23800;SDS011;12081;48.614;10.226;2022-12-18T08:53:06;46.40;;;18.77;;
23800;SDS011;12081;48.614;10.226;2022-12-18T08:55:50;51.73;;;20.60;;
23800;SDS011;12081;48.614;10.226;2022-12-18T08:58:34;54.93;;;21.63;;
23800;SDS011;12081;48.614;10.226;2022-12-18T09:01:18;54.37;;;23.23;;
23800;SDS011;12081;48.614;10.226;2022-12-18T09:04:03;47.30;;;19.63;;
23800;SDS011;12081;48.614;10.226;2022-12-18T09:06:47;48.90;;;19.53;;
23800;SDS011;12081;48.614;10.226;2022-12-18T09:09:31;51.63;;;20.70;;
23800;SDS011;12081;48.614;10.226;2022-12-18T09:12:16;48.73;;;21.03;;
23800;SDS011;12081;48.614;10.226;2022-12-18T09:15:00;52.37;;;20.60;;
23800;SDS011;12081;48.614;10.226;2022-12-18T09:17:44;48.17;;;19.27;;
23800;SDS011;12081;48.614;10.226;2022-12-18T09:20:28;60.47;;;21.37;;
23800;SDS011;12081;48.614;10.226;2022-12-18T09:23:13;48.53;;;20.13;;
23800;SDS011;12081;48.614;10.226;2022-12-18T09:25:58;44.80;;;19.60;;
23800;SDS011;12081;48.614;10.226;2022-12-18T09:28:43;45.60;;;19.23;;
23800;SDS011;12081;48.614;10.226;2022-12-18T09:31:27;50.77;;;19.63;;
23800;SDS011;12081;48.614;10.226;2022-12-18T09:34:11;47.33;;;20.33;;
23800;SDS011;12081;48.614;10.226;2022-12-18T09:36:56;45.40;;;21.13;;
23800;SDS011;12081;48.614;10.226;2022-12-18T09:39:40;46.60;;;19.20;;
23800;SDS011;12081;48.614;10.226;2022-12-18T09:42:24;49.70;;;20.60;;
23800;SDS011;12081;48.614;10.226;2022-12-18T09:45:08;44.70;;;19.70;;
23800;SDS011;12081;48.614;10.226;2022-12-18T09:47:59;46.43;;;19.67;;
23800;SDS011;12081;48.614;10.226;2022-12-18T09:50:47;46.23;;;20.27;;
23800;SDS011;12081;48.614;10.226;2022-12-18T09:53:34;42.73;;;19.90;;
23800;SDS011;12081;48.614;10.226;2022-12-18T09:56:21;46.93;;;20.47;;
23800;SDS011;12081;48.614;10.226;2022-12-18T09:59:09;47.40;;;20.13;;
23800;SDS011;12081;48.614;10.226;2022-12-18T10:02:16;39.83;;;17.33;;
23800;SDS011;12081;48.614;10.226;2022-12-18T10:05:15;46.60;;;21.40;;
23800;SDS011;12081;48.614;10.226;2022-12-18T10:08:15;48.83;;;20.23;;
23800;SDS011;12081;48.614;10.226;2022-12-18T10:11:16;43.07;;;18.50;;
23800;SDS011;12081;48.614;10.226;2022-12-18T10:20:29;37.70;;;16.57;;
23800;SDS011;12081;48.614;10.226;2022-12-18T10:23:25;39.40;;;17.27;;
23800;SDS011;12081;48.614;10.226;2022-12-18T10:26:16;39.90;;;18.53;;
23800;SDS011;12081;48.614;10.226;2022-12-18T10:29:01;43.17;;;18.77;;
23800;SDS011;12081;48.614;10.226;2022-12-18T10:31:47;43.07;;;20.27;;
23800;SDS011;12081;48.614;10.226;2022-12-18T10:34:31;48.00;;;20.87;;
23800;SDS011;12081;48.614;10.226;2022-12-18T10:37:19;46.23;;;20.70;;
23800;SDS011;12081;48.614;10.226;2022-12-18T10:40:13;45.63;;;20.73;;
23800;SDS011;12081;48.614;10.226;2022-12-18T10:43:09;45.77;;;19.37;;
23800;SDS011;12081;48.614;10.226;2022-12-18T10:48:55;51.33;;;20.87;;
23800;SDS011;12081;48.614;10.226;2022-12-18T10:51:40;43.47;;;20.77;;
23800;SDS011;12081;48.614;10.226;2022-12-18T10:54:24;48.53;;;20.37;;
23800;SDS011;12081;48.614;10.226;2022-12-18T10:57:16;46.40;;;19.97;;
23800;SDS011;12081;48.614;10.226;2022-12-18T11:00:23;46.67;;;20.70;;
23800;SDS011;12081;48.614;10.226;2022-12-18T11:03:59;57.10;;;22.10;;
23800;SDS011;12081;48.614;10.226;2022-12-18T11:06:28;54.23;;;20.40;;
23800;SDS011;12081;48.614;10.226;2022-12-18T11:09:19;46.47;;;20.23;;
23800;SDS011;12081;48.614;10.226;2022-12-18T11:12:14;49.73;;;21.47;;
23800;SDS011;12081;48.614;10.226;2022-12-18T11:15:01;43.90;;;19.87;;
23800;SDS011;12081;48.614;10.226;2022-12-18T11:17:46;43.27;;;21.07;;
23800;SDS011;12081;48.614;10.226;2022-12-18T11:20:41;47.57;;;21.70;;
23800;SDS011;12081;48.614;10.226;2022-12-18T11:23:25;45.97;;;20.40;;
23800;SDS011;12081;48.614;10.226;2022-12-18T11:26:11;42.37;;;19.23;;
23800;SDS011;12081;48.614;10.226;2022-12-18T11:29:08;49.47;;;21.03;;
23800;SDS011;12081;48.614;10.226;2022-12-18T11:33:00;46.23;;;20.83;;
23800;SDS011;12081;48.614;10.226;2022-12-18T11:38:23;50.53;;;20.63;;
23800;SDS011;12081;48.614;10.226;2022-12-18T11:44:05;51.23;;;22.23;;
23800;SDS011;12081;48.614;10.226;2022-12-18T11:47:00;50.57;;;20.07;;
23800;SDS011;12081;48.614;10.226;2022-12-18T11:49:53;43.27;;;20.57;;
23800;SDS011;12081;48.614;10.226;2022-12-18T11:52:40;44.10;;;20.23;;
23800;SDS011;12081;48.614;10.226;2022-12-18T11:55:28;53.07;;;22.43;;
23800;SDS011;12081;48.614;10.226;2022-12-18T11:58:26;38.83;;;18.67;;
23800;SDS011;12081;48.614;10.226;2022-12-18T12:07:43;48.70;;;20.87;;
23800;SDS011;12081;48.614;10.226;2022-12-18T12:13:29;40.43;;;19.03;;
23800;SDS011;12081;48.614;10.226;2022-12-18T12:16:45;48.53;;;19.67;;
23800;SDS011;12081;48.614;10.226;2022-12-18T12:19:45;43.07;;;20.40;;
23800;SDS011;12081;48.614;10.226;2022-12-18T12:26:07;45.83;;;21.50;;
23800;SDS011;12081;48.614;10.226;2022-12-18T12:35:36;45.20;;;19.87;;
23800;SDS011;12081;48.614;10.226;2022-12-18T12:38:52;53.67;;;21.87;;
23800;SDS011;12081;48.614;10.226;2022-12-18T12:41:43;76.87;;;31.97;;
23800;SDS011;12081;48.614;10.226;2022-12-18T12:44:53;52.93;;;23.37;;
23800;SDS011;12081;48.614;10.226;2022-12-18T12:47:40;51.13;;;22.53;;
23800;SDS011;12081;48.614;10.226;2022-12-18T12:50:29;57.13;;;23.37;;
23800;SDS011;12081;48.614;10.226;2022-12-18T12:53:32;59.60;;;25.30;;
23800;SDS011;12081;48.614;10.226;2022-12-18T12:56:20;52.90;;;23.17;;
23800;SDS011;12081;48.614;10.226;2022-12-18T13:05:14;57.00;;;23.60;;
23800;SDS011;12081;48.614;10.226;2022-12-18T13:08:08;49.07;;;22.43;;
23800;SDS011;12081;48.614;10.226;2022-12-18T13:10:54;49.83;;;21.57;;
23800;SDS011;12081;48.614;10.226;2022-12-18T13:13:59;45.93;;;19.87;;
23800;SDS011;12081;48.614;10.226;2022-12-18T13:16:43;50.93;;;23.00;;
23800;SDS011;12081;48.614;10.226;2022-12-18T13:19:27;49.23;;;22.30;;
23800;SDS011;12081;48.614;10.226;2022-12-18T13:22:24;51.07;;;22.83;;
23800;SDS011;12081;48.614;10.226;2022-12-18T13:28:16;56.13;;;23.80;;
23800;SDS011;12081;48.614;10.226;2022-12-18T13:31:05;59.03;;;24.30;;
23800;SDS011;12081;48.614;10.226;2022-12-18T13:33:49;50.20;;;22.43;;
23800;SDS011;12081;48.614;10.226;2022-12-18T13:36:33;48.53;;;22.50;;
23800;SDS011;12081;48.614;10.226;2022-12-18T13:44:49;59.13;;;24.03;;
23800;SDS011;12081;48.614;10.226;2022-12-18T13:47:34;44.00;;;19.83;;
23800;SDS011;12081;48.614;10.226;2022-12-18T13:50:24;48.10;;;23.10;;
23800;SDS011;12081;48.614;10.226;2022-12-18T13:53:15;51.43;;;24.37;;
23800;SDS011;12081;48.614;10.226;2022-12-18T13:56:05;50.13;;;21.50;;
23800;SDS011;12081;48.614;10.226;2022-12-18T14:01:59;50.53;;;22.20;;
23800;SDS011;12081;48.614;10.226;2022-12-18T14:04:45;56.03;;;21.50;;
23800;SDS011;12081;48.614;10.226;2022-12-18T14:07:30;57.83;;;24.03;;
23800;SDS011;12081;48.614;10.226;2022-12-18T14:10:16;58.37;;;23.07;;
23800;SDS011;12081;48.614;10.226;2022-12-18T14:13:05;55.83;;;24.43;;
23800;SDS011;12081;48.614;10.226;2022-12-18T14:15:52;55.90;;;23.27;;
23800;SDS011;12081;48.614;10.226;2022-12-18T14:18:41;56.77;;;26.37;;
23800;SDS011;12081;48.614;10.226;2022-12-18T14:21:37;43.90;;;19.87;;
23800;SDS011;12081;48.614;10.226;2022-12-18T14:24:22;54.77;;;22.57;;
23800;SDS011;12081;48.614;10.226;2022-12-18T14:27:20;47.00;;;21.90;;
23800;SDS011;12081;48.614;10.226;2022-12-18T14:33:27;45.57;;;20.53;;
23800;SDS011;12081;48.614;10.226;2022-12-18T14:36:13;50.90;;;22.77;;
23800;SDS011;12081;48.614;10.226;2022-12-18T14:39:04;56.70;;;21.90;;
23800;SDS011;12081;48.614;10.226;2022-12-18T14:41:48;45.87;;;21.00;;
23800;SDS011;12081;48.614;10.226;2022-12-18T14:44:34;51.07;;;22.27;;
23800;SDS011;12081;48.614;10.226;2022-12-18T14:47:19;49.37;;;21.63;;
23800;SDS011;12081;48.614;10.226;2022-12-18T14:50:10;52.40;;;22.10;;
23800;SDS011;12081;48.614;10.226;2022-12-18T14:52:58;53.40;;;22.97;;
23800;SDS011;12081;48.614;10.226;2022-12-18T14:55:45;49.60;;;20.97;;
23800;SDS011;12081;48.614;10.226;2022-12-18T14:58:32;53.13;;;22.00;;
23800;SDS011;12081;48.614;10.226;2022-12-18T15:01:18;50.40;;;20.43;;
23800;SDS011;12081;48.614;10.226;2022-12-18T15:04:23;47.80;;;20.27;;
23800;SDS011;12081;48.614;10.226;2022-12-18T15:07:16;49.60;;;21.83;;
23800;SDS011;12081;48.614;10.226;2022-12-18T15:10:20;51.93;;;20.80;;
23800;SDS011;12081;48.614;10.226;2022-12-18T15:13:15;48.40;;;21.10;;
23800;SDS011;12081;48.614;10.226;2022-12-18T15:16:06;52.97;;;21.47;;
23800;SDS011;12081;48.614;10.226;2022-12-18T15:18:56;54.47;;;22.67;;
23800;SDS011;12081;48.614;10.226;2022-12-18T15:21:42;54.17;;;23.13;;
23800;SDS011;12081;48.614;10.226;2022-12-18T15:24:29;56.07;;;23.03;;
23800;SDS011;12081;48.614;10.226;2022-12-18T15:27:26;52.60;;;21.80;;
23800;SDS011;12081;48.614;10.226;2022-12-18T15:30:16;56.37;;;23.03;;
23800;SDS011;12081;48.614;10.226;2022-12-18T15:33:25;43.70;;;19.60;;
23800;SDS011;12081;48.614;10.226;2022-12-18T15:36:12;47.47;;;20.70;;
23800;SDS011;12081;48.614;10.226;2022-12-18T15:38:58;45.00;;;20.20;;
23800;SDS011;12081;48.614;10.226;2022-12-18T15:41:42;49.03;;;23.03;;
23800;SDS011;12081;48.614;10.226;2022-12-18T15:44:47;46.07;;;19.93;;
23800;SDS011;12081;48.614;10.226;2022-12-18T15:47:32;49.73;;;20.67;;
23800;SDS011;12081;48.614;10.226;2022-12-18T15:50:17;47.13;;;20.93;;
23800;SDS011;12081;48.614;10.226;2022-12-18T15:53:02;46.53;;;21.53;;
23800;SDS011;12081;48.614;10.226;2022-12-18T15:55:46;46.97;;;19.30;;
23800;SDS011;12081;48.614;10.226;2022-12-18T15:58:50;53.07;;;23.70;;
23800;SDS011;12081;48.614;10.226;2022-12-18T16:01:34;57.00;;;22.20;;
23800;SDS011;12081;48.614;10.226;2022-12-18T16:04:19;51.50;;;21.70;;
23800;SDS011;12081;48.614;10.226;2022-12-18T16:07:05;49.63;;;22.20;;
23800;SDS011;12081;48.614;10.226;2022-12-18T16:09:51;47.57;;;20.77;;
23800;SDS011;12081;48.614;10.226;2022-12-18T16:12:36;46.97;;;20.87;;
23800;SDS011;12081;48.614;10.226;2022-12-18T16:15:21;50.07;;;20.90;;
23800;SDS011;12081;48.614;10.226;2022-12-18T16:18:06;49.37;;;21.70;;
23800;SDS011;12081;48.614;10.226;2022-12-18T16:20:50;49.83;;;21.40;;
23800;SDS011;12081;48.614;10.226;2022-12-18T16:23:35;50.20;;;20.23;;
23800;SDS011;12081;48.614;10.226;2022-12-18T16:26:19;52.17;;;21.80;;
23800;SDS011;12081;48.614;10.226;2022-12-18T16:29:04;48.17;;;22.47;;
23800;SDS011;12081;48.614;10.226;2022-12-18T16:31:49;50.97;;;22.07;;
23800;SDS011;12081;48.614;10.226;2022-12-18T16:34:34;52.87;;;22.23;;
23800;SDS011;12081;48.614;10.226;2022-12-18T16:37:18;52.00;;;22.40;;
23800;SDS011;12081;48.614;10.226;2022-12-18T16:40:03;53.63;;;21.53;;
23800;SDS011;12081;48.614;10.226;2022-12-18T16:42:48;50.93;;;21.03;;
23800;SDS011;12081;48.614;10.226;2022-12-18T16:45:32;56.03;;;22.03;;
23800;SDS011;12081;48.614;10.226;2022-12-18T16:48:17;48.77;;;20.93;;
23800;SDS011;12081;48.614;10.226;2022-12-18T16:51:03;49.70;;;20.50;;
23800;SDS011;12081;48.614;10.226;2022-12-18T16:53:48;53.43;;;19.23;;
23800;SDS011;12081;48.614;10.226;2022-12-18T16:56:33;47.77;;;20.90;;
23800;SDS011;12081;48.614;10.226;2022-12-18T16:59:18;55.90;;;19.87;;
23800;SDS011;12081;48.614;10.226;2022-12-18T17:02:02;49.37;;;21.53;;
23800;SDS011;12081;48.614;10.226;2022-12-18T17:04:47;46.63;;;19.40;;
23800;SDS011;12081;48.614;10.226;2022-12-18T17:07:31;46.83;;;21.20;;
23800;SDS011;12081;48.614;10.226;2022-12-18T17:10:16;54.00;;;23.27;;
23800;SDS011;12081;48.614;10.226;2022-12-18T17:13:00;50.23;;;20.37;;
23800;SDS011;12081;48.614;10.226;2022-12-18T17:15:45;45.13;;;19.57;;
23800;SDS011;12081;48.614;10.226;2022-12-18T17:18:30;43.97;;;18.67;;
23800;SDS011;12081;48.614;10.226;2022-12-18T17:21:15;46.87;;;19.57;;
23800;SDS011;12081;48.614;10.226;2022-12-18T17:24:00;49.87;;;21.17;;
23800;SDS011;12081;48.614;10.226;2022-12-18T17:26:45;45.37;;;18.93;;
23800;SDS011;12081;48.614;10.226;2022-12-18T17:29:31;49.63;;;20.50;;